createdAt,value
2023-03-20T00:02:29.414Z,4.32
2023-03-20T00:04:59.119Z,4.31
2023-03-20T00:07:30.183Z,4.28
2023-03-20T00:09:59.035Z,4.25
2023-03-20T00:12:27.877Z,4.27
2023-03-20T00:15:01.128Z,4.28
2023-03-20T00:17:30.846Z,4.27
2023-03-20T00:19:59.813Z,4.28
2023-03-20T00:22:29.548Z,4.26
2023-03-20T00:25:03.906Z,4.22
2023-03-20T00:27:32.544Z,4.19
2023-03-20T00:30:01.226Z,4.18
2023-03-20T00:32:31.957Z,4.17
2023-03-20T00:35:00.880Z,4.12
2023-03-20T00:37:29.609Z,4.08
2023-03-20T00:40:00.041Z,4.05
2023-03-20T00:42:29.357Z,4.02
2023-03-20T00:44:59.785Z,4.02
2023-03-20T00:47:28.993Z,4.04
2023-03-20T00:49:59.054Z,4.06
2023-03-20T00:52:29.089Z,4.04
2023-03-20T00:54:57.666Z,4.03
2023-03-20T00:57:29.873Z,3.99
2023-03-20T01:00:02.225Z,3.94
2023-03-20T01:02:31.836Z,3.90
2023-03-20T01:05:05.887Z,3.86
2023-03-20T01:07:34.413Z,3.81
2023-03-20T01:10:05.774Z,3.80
2023-03-20T01:12:37.819Z,3.78
2023-03-20T01:15:17.774Z,3.74
2023-03-20T01:17:47.119Z,3.73
2023-03-20T01:20:22.126Z,3.71
2023-03-20T01:22:51.493Z,3.69
2023-03-20T01:25:20.306Z,3.70
2023-03-20T01:27:54.105Z,3.73
2023-03-20T01:30:26.868Z,3.70
2023-03-20T01:32:56.500Z,3.71
2023-03-20T01:35:29.700Z,3.72
2023-03-20T01:38:02.707Z,3.70
2023-03-20T01:40:41.447Z,3.71
2023-03-20T01:43:20.542Z,3.68
2023-03-20T01:46:00.020Z,3.66
2023-03-20T01:48:37.970Z,3.64
2023-03-20T01:51:08.235Z,3.62
2023-03-20T01:53:37.052Z,3.53
2023-03-20T01:56:06.607Z,3.59
2023-03-20T01:58:47.546Z,3.57
2023-03-20T02:01:16.803Z,3.55
2023-03-20T02:03:52.016Z,3.52
2023-03-20T02:06:41.947Z,3.51
2023-03-20T02:09:17.864Z,3.48
2023-03-20T02:11:48.119Z,3.46
2023-03-20T02:14:20.804Z,3.44
2023-03-20T02:16:57.757Z,3.42
2023-03-20T02:19:49.040Z,3.42
2023-03-20T02:22:47.986Z,3.39
2023-03-20T02:25:59.787Z,3.35
2023-03-20T02:28:53.960Z,3.31
2023-03-20T02:31:46.861Z,3.29
2023-03-20T02:34:52.703Z,3.26
2023-03-20T02:37:48.861Z,3.20
2023-03-20T02:40:27.674Z,3.20
2023-03-20T02:43:03.530Z,3.19
2023-03-20T02:45:40.006Z,3.15
2023-03-20T02:48:22.592Z,3.14
2023-03-20T02:50:54.964Z,3.09
2023-03-20T02:53:36.083Z,3.05
2023-03-20T02:56:12.949Z,3.05
2023-03-20T02:58:47.661Z,3.03
2023-03-20T03:01:22.272Z,3.03
2023-03-20T03:03:56.306Z,3.00
2023-03-20T03:06:31.716Z,2.96
2023-03-20T03:09:05.188Z,2.97
2023-03-20T03:11:37.531Z,2.97
2023-03-20T03:14:07.789Z,2.98
2023-03-20T03:16:39.617Z,3.03
2023-03-20T03:19:10.669Z,3.06
2023-03-20T03:21:41.891Z,3.07
2023-03-20T03:24:40.396Z,3.06
2023-03-20T03:27:18.771Z,3.03
2023-03-20T03:29:52.813Z,3.03
2023-03-20T03:32:27.645Z,3.09
2023-03-20T03:34:57.272Z,3.15
2023-03-20T03:37:40.125Z,3.15
2023-03-20T03:40:21.001Z,3.11
2023-03-20T03:42:58.189Z,3.06
2023-03-20T03:45:33.867Z,3.01
2023-03-20T03:48:08.583Z,2.98
2023-03-20T03:50:48.065Z,2.93
2023-03-20T03:53:22.401Z,2.89
2023-03-20T03:55:57.922Z,2.86
2023-03-20T03:58:30.543Z,2.82
2023-03-20T04:01:01.708Z,2.85
2023-03-20T04:03:34.103Z,2.90
2023-03-20T04:06:06.206Z,2.91
2023-03-20T04:08:35.552Z,2.87
2023-03-20T04:11:05.749Z,2.86
2023-03-20T04:13:34.444Z,2.84
2023-03-20T04:16:03.764Z,2.83
2023-03-20T04:18:32.758Z,2.83
2023-03-20T04:21:02.415Z,2.82
2023-03-20T04:23:31.083Z,2.82
2023-03-20T04:26:00.355Z,2.82
2023-03-20T04:28:31.622Z,2.82
2023-03-20T04:31:21.599Z,2.82
2023-03-20T04:34:29.508Z,2.84
2023-03-20T04:37:10.598Z,2.86
2023-03-20T04:39:51.120Z,2.80
2023-03-20T04:42:19.801Z,2.75
2023-03-20T04:44:49.917Z,2.81
2023-03-20T04:47:19.153Z,2.86
2023-03-20T04:49:48.014Z,2.93
2023-03-20T04:52:19.936Z,2.99
2023-03-20T04:54:48.790Z,3.05
2023-03-20T04:57:20.138Z,3.05
2023-03-20T04:59:50.706Z,3.12
2023-03-20T05:02:19.917Z,3.15
2023-03-20T05:04:48.567Z,3.18
2023-03-20T05:07:17.238Z,3.18
2023-03-20T05:10:01.472Z,3.19
2023-03-20T05:12:33.404Z,3.21
2023-03-20T05:15:13.284Z,3.26
2023-03-20T05:18:02.430Z,3.34
2023-03-20T05:20:54.744Z,3.40
2023-03-20T05:23:45.766Z,3.47
2023-03-20T05:26:25.477Z,3.57
2023-03-20T05:29:13.251Z,3.66
2023-03-20T05:32:05.567Z,3.73
2023-03-20T05:34:55.611Z,3.83
2023-03-20T05:37:33.179Z,3.96
2023-03-20T05:40:16.886Z,4.03
2023-03-20T05:43:01.359Z,4.05
2023-03-20T05:45:39.089Z,4.20
2023-03-20T05:48:21.950Z,4.29
2023-03-20T05:51:16.862Z,4.41
2023-03-20T05:53:54.858Z,4.50
2023-03-20T05:56:35.572Z,4.58
2023-03-20T05:59:22.835Z,4.64
2023-03-20T06:02:11.964Z,4.75
2023-03-20T06:04:47.524Z,4.83
2023-03-20T06:07:46.420Z,4.93
2023-03-20T06:10:17.782Z,4.98
2023-03-20T06:12:46.685Z,4.99
2023-03-20T06:15:16.409Z,5.04
2023-03-20T06:17:51.420Z,5.04
2023-03-20T06:20:21.856Z,5.07
2023-03-20T06:22:50.279Z,5.09
2023-03-20T06:25:19.849Z,5.16
2023-03-20T06:27:48.971Z,5.23
2023-03-20T06:30:18.600Z,5.28
2023-03-20T06:32:48.577Z,5.31
2023-03-20T06:35:20.104Z,5.37
2023-03-20T06:37:54.200Z,5.40
2023-03-20T06:40:28.387Z,5.44
2023-03-20T06:42:57.579Z,5.49
2023-03-20T06:45:36.390Z,5.52
2023-03-20T06:48:10.031Z,5.57
2023-03-20T06:50:38.984Z,5.58
2023-03-20T06:53:13.790Z,5.65
2023-03-20T06:55:49.041Z,5.73
2023-03-20T06:58:17.914Z,5.79
2023-03-20T07:00:49.262Z,5.86
2023-03-20T07:03:18.001Z,5.97
2023-03-20T07:05:48.908Z,6.11
2023-03-20T07:08:20.106Z,6.34
2023-03-20T07:10:51.843Z,6.59
2023-03-20T07:13:20.843Z,6.81
2023-03-20T07:16:03.370Z,7.09
2023-03-20T07:18:38.313Z,7.30
2023-03-20T07:21:11.637Z,7.42
2023-03-20T07:23:46.871Z,7.60
2023-03-20T07:26:18.544Z,7.78
2023-03-20T07:28:48.099Z,7.95
2023-03-20T07:31:26.602Z,8.12
2023-03-20T07:34:05.591Z,8.28
2023-03-20T07:36:36.504Z,8.44
2023-03-20T07:39:07.350Z,8.68
2023-03-20T07:41:39.018Z,8.94
2023-03-20T07:44:11.004Z,9.17
2023-03-20T07:46:53.438Z,9.41
2023-03-20T07:49:25.351Z,9.63
2023-03-20T07:51:55.472Z,9.90
2023-03-20T07:54:26.394Z,10.19
2023-03-20T07:56:55.076Z,10.52
2023-03-20T07:59:23.990Z,10.98
2023-03-20T08:01:52.750Z,11.44
2023-03-20T08:04:23.275Z,11.78
2023-03-20T08:06:52.719Z,12.16
2023-03-20T08:09:21.564Z,12.46
2023-03-20T08:11:52.461Z,12.65
2023-03-20T08:14:25.249Z,12.68
2023-03-20T08:17:10.291Z,12.73
2023-03-20T08:19:41.786Z,12.64
2023-03-20T08:22:10.466Z,12.65
2023-03-20T08:24:39.966Z,12.64
2023-03-20T08:27:10.710Z,12.88
2023-03-20T08:29:39.812Z,13.27
2023-03-20T08:32:08.438Z,13.58
2023-03-20T08:34:37.109Z,13.67
2023-03-20T08:37:08.125Z,13.67
2023-03-20T08:39:36.996Z,13.79
2023-03-20T08:42:06.089Z,14.01
2023-03-20T08:44:36.063Z,14.16
2023-03-20T08:47:06.341Z,14.30
2023-03-20T08:49:35.042Z,14.36
2023-03-20T08:52:03.954Z,14.47
2023-03-20T08:54:33.969Z,14.81
2023-03-20T08:57:02.675Z,15.00
2023-03-20T08:59:31.628Z,15.12
2023-03-20T09:02:01.907Z,15.17
2023-03-20T09:04:31.128Z,15.19
2023-03-20T09:07:01.464Z,15.33
2023-03-20T09:09:30.689Z,15.71
2023-03-20T09:12:00.030Z,16.00
2023-03-20T09:14:29.989Z,16.27
2023-03-20T09:16:58.779Z,16.39
2023-03-20T09:19:30.717Z,16.45
2023-03-20T09:22:00.640Z,16.60
2023-03-20T09:24:31.787Z,16.84
2023-03-20T09:27:03.541Z,17.11
2023-03-20T09:29:33.155Z,17.24
2023-03-20T09:32:02.530Z,17.30
2023-03-20T09:34:32.843Z,17.28
2023-03-20T09:37:03.250Z,17.34
2023-03-20T09:39:32.135Z,17.66
2023-03-20T09:42:09.960Z,18.13
2023-03-20T09:44:52.049Z,18.27
2023-03-20T09:47:27.620Z,18.25
2023-03-20T09:50:10.964Z,17.90
2023-03-20T09:52:44.345Z,17.82
2023-03-20T09:55:17.086Z,18.03
2023-03-20T09:57:51.678Z,18.20
2023-03-20T10:00:24.547Z,18.51
2023-03-20T10:02:59.882Z,18.93
2023-03-20T10:05:32.995Z,19.13
2023-03-20T10:08:04.884Z,19.59
2023-03-20T10:10:47.485Z,19.83
2023-03-20T10:13:32.028Z,19.81
2023-03-20T10:16:12.711Z,19.62
2023-03-20T10:18:51.126Z,19.29
2023-03-20T10:21:29.892Z,19.22
2023-03-20T10:24:03.515Z,19.66
2023-03-20T10:26:35.409Z,19.61
2023-03-20T10:29:08.961Z,19.39
2023-03-20T10:31:44.894Z,19.20
2023-03-20T10:34:33.007Z,19.06
2023-03-20T10:37:17.940Z,19.27
2023-03-20T10:39:56.526Z,19.38
2023-03-20T10:42:30.245Z,19.73
2023-03-20T10:45:03.636Z,19.62
2023-03-20T10:47:37.584Z,19.53
2023-03-20T10:50:12.696Z,19.21
2023-03-20T10:52:43.760Z,18.84
2023-03-20T10:55:17.368Z,18.47
2023-03-20T10:57:52.380Z,18.14
2023-03-20T11:00:24.450Z,18.08
2023-03-20T11:02:53.502Z,17.78
2023-03-20T11:05:26.658Z,17.31
2023-03-20T11:19:15.761Z,15.52
2023-03-20T11:21:50.425Z,15.47
2023-03-20T11:24:38.207Z,15.41
2023-03-20T11:27:09.032Z,15.28
2023-03-20T11:29:39.108Z,15.24
2023-03-20T11:32:13.829Z,15.17
2023-03-20T11:34:43.619Z,15.00
2023-03-20T11:37:24.101Z,14.84
2023-03-20T11:40:00.667Z,14.74
2023-03-20T11:42:31.856Z,14.70
2023-03-20T11:45:07.620Z,14.62
2023-03-20T11:47:37.466Z,14.53
2023-03-20T11:50:07.758Z,14.41
2023-03-20T11:52:38.870Z,14.27
2023-03-20T11:55:26.443Z,14.16
2023-03-20T11:57:58.738Z,14.01
2023-03-20T12:00:30.625Z,13.85
2023-03-20T12:02:59.014Z,13.79
2023-03-20T12:05:34.218Z,13.66
2023-03-20T12:08:10.012Z,13.47
2023-03-20T12:10:45.011Z,13.35
2023-03-20T12:13:18.383Z,13.24
2023-03-20T12:15:51.049Z,13.17
2023-03-20T12:18:28.713Z,13.13
2023-03-20T12:21:08.676Z,13.11
2023-03-20T12:23:42.171Z,13.08
2023-03-20T12:26:16.302Z,13.06
2023-03-20T12:28:51.995Z,13.09
2023-03-20T12:31:28.078Z,13.08
2023-03-20T12:34:01.586Z,13.07
2023-03-20T12:36:34.055Z,13.03
2023-03-20T12:39:05.057Z,13.00
2023-03-20T12:41:42.807Z,12.95
2023-03-20T12:44:26.272Z,13.00
2023-03-20T12:47:08.533Z,13.06
2023-03-20T12:49:48.491Z,13.09
2023-03-20T12:52:24.854Z,13.19
2023-03-20T12:55:18.307Z,13.23
2023-03-20T12:58:02.858Z,13.29
2023-03-20T13:00:36.523Z,13.28
2023-03-20T13:03:20.571Z,13.30
2023-03-20T13:05:54.373Z,13.26
2023-03-20T13:08:53.089Z,13.23
2023-03-20T13:11:32.692Z,13.27
2023-03-20T13:14:07.970Z,13.25
2023-03-20T13:16:47.357Z,13.24
2023-03-20T13:19:27.190Z,13.17
2023-03-20T13:22:02.301Z,13.08
2023-03-20T13:24:40.296Z,13.04
2023-03-20T13:27:30.696Z,13.00
2023-03-20T13:30:05.137Z,12.90
2023-03-20T13:32:47.185Z,12.83
2023-03-20T13:35:29.776Z,12.69
2023-03-20T13:38:02.246Z,12.62
2023-03-20T13:40:31.683Z,12.59
2023-03-20T13:43:19.475Z,12.57
2023-03-20T13:45:53.022Z,12.52
2023-03-20T13:48:30.881Z,12.52
2023-03-20T13:51:10.962Z,12.51
2023-03-20T13:53:50.009Z,12.50
2023-03-20T13:56:29.971Z,12.51
2023-03-20T13:59:15.920Z,12.50
2023-03-20T14:01:52.165Z,12.49
2023-03-20T14:04:24.618Z,12.49
2023-03-20T14:06:55.596Z,12.53
2023-03-20T14:09:35.260Z,12.51
2023-03-20T14:12:18.427Z,12.49
2023-03-20T14:14:52.490Z,12.48
2023-03-20T14:17:22.954Z,12.46
2023-03-20T14:19:52.749Z,12.45
2023-03-20T14:22:24.013Z,12.43
2023-03-20T14:24:58.318Z,12.41
2023-03-20T14:27:43.177Z,12.39
2023-03-20T14:30:42.129Z,12.38
2023-03-20T14:33:43.073Z,12.39
2023-03-20T14:36:42.825Z,12.46
2023-03-20T14:39:24.412Z,12.50
2023-03-20T14:42:04.008Z,12.58
2023-03-20T14:44:49.420Z,12.64
2023-03-20T14:47:27.774Z,12.72
2023-03-20T14:50:04.753Z,12.77
2023-03-20T14:52:43.734Z,12.82
2023-03-20T14:55:34.337Z,12.86
2023-03-20T14:58:27.637Z,12.88
2023-03-20T15:00:56.706Z,12.91
2023-03-20T15:03:25.206Z,12.91
2023-03-20T15:06:00.699Z,12.90
2023-03-20T15:08:33.235Z,12.90
2023-03-20T15:11:04.565Z,12.84
2023-03-20T15:13:36.425Z,12.75
2023-03-20T15:16:08.542Z,12.71
2023-03-20T15:18:52.789Z,12.67
2023-03-20T15:21:31.231Z,12.66
2023-03-20T15:24:00.614Z,12.65
2023-03-20T15:26:30.462Z,12.62
2023-03-20T15:29:03.182Z,12.59
2023-03-20T15:31:34.844Z,12.57
2023-03-20T15:34:06.427Z,12.53
2023-03-20T15:36:39.025Z,12.46
2023-03-20T15:39:14.476Z,12.42
2023-03-20T15:41:47.705Z,12.33
2023-03-20T15:44:22.312Z,12.28
2023-03-20T15:47:02.761Z,12.25
2023-03-20T15:49:33.957Z,12.17
2023-03-20T15:52:08.335Z,12.12
2023-03-20T15:54:37.609Z,12.09
2023-03-20T15:57:06.604Z,12.05
2023-03-20T15:59:35.987Z,12.00
2023-03-20T16:02:05.459Z,11.95
2023-03-20T16:04:34.297Z,11.91
2023-03-20T16:07:04.928Z,11.86
2023-03-20T16:09:44.982Z,11.79
2023-03-20T16:12:17.550Z,11.71
2023-03-20T16:14:48.566Z,11.63
2023-03-20T16:17:18.845Z,11.57
2023-03-20T16:19:47.475Z,11.50
2023-03-20T16:22:27.745Z,11.42
2023-03-20T16:25:00.299Z,11.34
2023-03-20T16:27:31.049Z,11.27
2023-03-20T16:29:59.821Z,11.21
2023-03-20T16:32:36.853Z,11.18
2023-03-20T16:35:12.147Z,11.15
2023-03-20T16:37:49.763Z,11.13
2023-03-20T16:40:22.596Z,11.07
2023-03-20T16:42:54.923Z,11.04
2023-03-20T16:45:25.484Z,11.02
2023-03-20T16:48:22.481Z,11.01
2023-03-20T16:50:58.110Z,11.02
2023-03-20T16:53:30.969Z,11.03
2023-03-20T16:56:00.005Z,11.07
2023-03-20T16:58:31.023Z,11.03
2023-03-20T17:01:01.765Z,11.00
2023-03-20T17:03:36.529Z,10.95
2023-03-20T17:06:09.155Z,10.89
2023-03-20T17:08:42.767Z,10.86
2023-03-20T17:11:14.367Z,10.82
2023-03-20T17:13:43.493Z,10.76
2023-03-20T17:16:17.184Z,10.71
2023-03-20T17:18:46.685Z,10.60
2023-03-20T17:21:15.935Z,10.48
2023-03-20T17:23:45.996Z,10.32
2023-03-20T17:26:14.561Z,10.20
2023-03-20T17:28:43.526Z,10.08
2023-03-20T17:31:16.931Z,9.96
2023-03-20T17:33:47.085Z,9.84
2023-03-20T17:36:19.186Z,9.67
2023-03-20T17:38:49.332Z,9.55
2023-03-20T17:41:20.346Z,9.48
2023-03-20T17:43:51.494Z,9.40
2023-03-20T17:46:21.531Z,9.33
2023-03-20T17:48:51.835Z,9.18
2023-03-20T17:51:20.256Z,9.09
2023-03-20T17:53:55.405Z,9.09
2023-03-20T17:56:30.385Z,9.12
2023-03-20T17:59:00.071Z,9.19
2023-03-20T18:01:31.100Z,9.28
2023-03-20T18:04:01.070Z,9.45
2023-03-20T18:06:31.844Z,9.55
2023-03-20T18:09:02.716Z,9.63
2023-03-20T18:11:31.660Z,9.70
2023-03-20T18:14:02.151Z,9.71
2023-03-20T18:16:32.694Z,9.75
2023-03-20T18:19:02.808Z,9.76
2023-03-20T18:21:31.758Z,9.76
2023-03-20T18:24:01.612Z,9.73
2023-03-20T18:26:30.005Z,9.69
2023-03-20T18:28:59.543Z,9.65
2023-03-20T18:31:28.161Z,9.61
2023-03-20T18:33:56.925Z,9.52
2023-03-20T18:36:26.360Z,9.43
2023-03-20T18:38:56.120Z,9.33
2023-03-20T18:41:26.807Z,9.23
2023-03-20T18:43:56.731Z,9.11
2023-03-20T18:46:27.497Z,8.99
2023-03-20T18:48:58.198Z,8.88
2023-03-20T18:51:27.090Z,8.73
2023-03-20T18:53:56.060Z,8.65
2023-03-20T18:56:27.821Z,8.53
2023-03-20T18:58:56.513Z,8.42
2023-03-20T19:01:25.134Z,8.35
2023-03-20T19:03:54.034Z,8.34
2023-03-20T19:06:24.424Z,8.34
2023-03-20T19:08:53.556Z,8.32
2023-03-20T19:11:22.433Z,8.34
2023-03-20T19:13:54.496Z,8.37
2023-03-20T19:16:26.510Z,8.40
2023-03-20T19:18:56.407Z,8.45
2023-03-20T19:21:26.493Z,8.47
2023-03-20T19:23:55.641Z,8.46
2023-03-20T19:26:26.845Z,8.49
2023-03-20T19:28:58.312Z,8.48
2023-03-20T19:31:28.301Z,8.41
2023-03-20T19:33:57.367Z,8.32
2023-03-20T19:36:29.266Z,8.24
2023-03-20T19:38:59.640Z,8.21
2023-03-20T19:41:32.362Z,8.18
2023-03-20T19:44:02.473Z,8.23
2023-03-20T19:46:41.216Z,8.29
2023-03-20T19:49:18.979Z,8.37
2023-03-20T19:51:49.157Z,8.48
2023-03-20T19:54:18.665Z,8.53
2023-03-20T19:56:47.694Z,8.60
2023-03-20T19:59:17.962Z,8.65
2023-03-20T20:01:47.033Z,8.70
2023-03-20T20:04:16.841Z,8.77
2023-03-20T20:06:47.504Z,8.81
2023-03-20T20:09:16.770Z,8.90
2023-03-20T20:11:45.487Z,8.95
2023-03-20T20:14:15.339Z,8.96
2023-03-20T20:16:47.385Z,8.98
2023-03-20T20:19:16.564Z,8.98
2023-03-20T20:24:34.158Z,8.97
2023-03-20T20:27:16.317Z,8.96
2023-03-20T20:29:49.391Z,8.97
2023-03-20T20:32:20.970Z,8.98
2023-03-20T20:38:27.136Z,9.01
2023-03-20T20:40:33.132Z,9.04
2023-03-20T20:43:05.311Z,9.06
2023-03-20T20:45:38.104Z,9.08
2023-03-20T20:48:09.732Z,9.10
2023-03-20T20:50:39.326Z,9.15
2023-03-20T20:53:09.011Z,9.21
2023-03-20T20:55:38.029Z,9.24
2023-03-20T20:58:07.199Z,9.26
2023-03-20T21:00:49.543Z,9.27
2023-03-20T21:03:22.430Z,9.30
2023-03-20T21:05:51.350Z,9.32
2023-03-20T21:08:20.288Z,9.34
2023-03-20T21:10:50.565Z,9.34
2023-03-20T21:13:19.496Z,9.35
2023-03-20T21:15:48.457Z,9.39
2023-03-20T21:18:17.597Z,9.42
2023-03-20T21:20:47.960Z,9.46
2023-03-20T21:23:16.946Z,9.48
2023-03-20T21:25:47.970Z,9.50
2023-03-20T21:28:17.264Z,9.50
2023-03-20T21:31:12.512Z,9.50
2023-03-20T21:33:37.042Z,9.45
2023-03-20T21:36:08.366Z,9.45
2023-03-20T21:39:06.069Z,9.46
2023-03-20T21:41:26.075Z,9.47
2023-03-20T21:43:56.131Z,9.47
2023-03-20T21:47:10.349Z,9.46
2023-03-20T21:55:38.537Z,9.40
2023-03-20T21:58:29.178Z,9.37
2023-03-20T22:01:29.074Z,9.36
2023-03-20T22:03:52.025Z,9.33
2023-03-20T22:07:13.081Z,9.33
2023-03-20T22:18:12.160Z,9.35
2023-03-20T22:21:06.747Z,9.39
2023-03-20T22:23:56.138Z,9.38
2023-03-20T22:27:05.320Z,9.35
2023-03-20T22:32:27.667Z,9.32
2023-03-20T22:35:19.668Z,9.23
2023-03-20T22:40:53.611Z,9.24
2023-03-20T22:44:13.700Z,9.24
2023-03-20T22:46:05.396Z,9.20
2023-03-20T22:48:34.561Z,9.21
2023-03-20T22:51:03.851Z,9.26
2023-03-20T22:53:34.565Z,9.24
2023-03-20T22:56:04.566Z,9.29
2023-03-20T22:58:35.064Z,9.29
2023-03-20T23:01:04.030Z,9.31
2023-03-20T23:03:41.445Z,9.34
2023-03-20T23:06:16.770Z,9.32
2023-03-20T23:08:52.418Z,9.36
2023-03-20T23:11:25.357Z,9.36
2023-03-20T23:13:56.462Z,9.36
2023-03-20T23:16:25.895Z,9.35
2023-03-20T23:18:55.003Z,9.33
2023-03-20T23:21:24.515Z,9.33
2023-03-20T23:23:53.750Z,9.33
2023-03-20T23:26:23.488Z,9.28
2023-03-20T23:28:54.739Z,9.28
2023-03-20T23:31:25.258Z,9.27
2023-03-20T23:33:55.852Z,9.25
2023-03-20T23:36:36.097Z,9.25
2023-03-20T23:39:06.934Z,9.25
2023-03-20T23:42:02.318Z,9.23
2023-03-20T23:44:26.490Z,9.26
2023-03-20T23:46:55.786Z,9.23
2023-03-20T23:49:24.572Z,9.23
2023-03-20T23:51:53.255Z,9.20
2023-03-20T23:54:21.847Z,9.20
2023-03-20T23:56:50.715Z,9.16
2023-03-20T23:59:21.821Z,9.16
